sensor_id;sensor_type;location;lat;lon;timestamp;P1;durP1;ratioP1;P2;durP2;ratioP2
18239;SDS011;9244;50.828;4.718;2023-10-13T00:01:56;26.27;;;19.90;;
18239;SDS011;9244;50.828;4.718;2023-10-13T00:04:26;22.90;;;18.38;;
18239;SDS011;9244;50.828;4.718;2023-10-13T00:06:54;20.60;;;18.27;;
18239;SDS011;9244;50.828;4.718;2023-10-13T00:09:23;23.30;;;18.50;;
18239;SDS011;9244;50.828;4.718;2023-10-13T00:11:53;22.80;;;18.58;;
18239;SDS011;9244;50.828;4.718;2023-10-13T00:14:20;24.52;;;19.75;;
18239;SDS011;9244;50.828;4.718;2023-10-13T00:16:46;20.33;;;18.05;;
18239;SDS011;9244;50.828;4.718;2023-10-13T00:19:33;25.88;;;19.17;;
18239;SDS011;9244;50.828;4.718;2023-10-13T00:22:12;26.90;;;18.95;;
18239;SDS011;9244;50.828;4.718;2023-10-13T00:24:41;22.58;;;18.13;;
18239;SDS011;9244;50.828;4.718;2023-10-13T00:27:17;25.60;;;19.10;;
18239;SDS011;9244;50.828;4.718;2023-10-13T00:30:06;20.25;;;17.85;;
18239;SDS011;9244;50.828;4.718;2023-10-13T00:32:58;20.52;;;17.73;;
18239;SDS011;9244;50.828;4.718;2023-10-13T00:35:25;21.70;;;18.17;;
18239;SDS011;9244;50.828;4.718;2023-10-13T00:38:00;26.42;;;18.42;;
18239;SDS011;9244;50.828;4.718;2023-10-13T00:40:31;24.65;;;19.30;;
18239;SDS011;9244;50.828;4.718;2023-10-13T00:42:57;23.52;;;18.15;;
18239;SDS011;9244;50.828;4.718;2023-10-13T00:45:56;22.35;;;16.92;;
18239;SDS011;9244;50.828;4.718;2023-10-13T00:48:31;18.42;;;14.98;;
18239;SDS011;9244;50.828;4.718;2023-10-13T00:51:00;20.67;;;18.58;;
18239;SDS011;9244;50.828;4.718;2023-10-13T00:53:38;21.20;;;16.92;;
18239;SDS011;9244;50.828;4.718;2023-10-13T00:56:06;22.02;;;17.73;;
18239;SDS011;9244;50.828;4.718;2023-10-13T00:58:36;24.48;;;18.35;;
18239;SDS011;9244;50.828;4.718;2023-10-13T01:01:05;22.33;;;17.67;;
18239;SDS011;9244;50.828;4.718;2023-10-13T01:03:51;23.27;;;18.33;;
18239;SDS011;9244;50.828;4.718;2023-10-13T01:06:30;19.25;;;17.13;;
18239;SDS011;9244;50.828;4.718;2023-10-13T01:08:59;20.30;;;17.10;;
18239;SDS011;9244;50.828;4.718;2023-10-13T01:11:45;23.60;;;18.67;;
18239;SDS011;9244;50.828;4.718;2023-10-13T01:14:17;23.08;;;18.05;;
18239;SDS011;9244;50.828;4.718;2023-10-13T01:16:45;21.98;;;16.95;;
18239;SDS011;9244;50.828;4.718;2023-10-13T01:19:12;22.52;;;17.05;;
18239;SDS011;9244;50.828;4.718;2023-10-13T01:21:39;24.83;;;19.45;;
18239;SDS011;9244;50.828;4.718;2023-10-13T01:24:09;21.88;;;17.52;;
18239;SDS011;9244;50.828;4.718;2023-10-13T01:26:36;22.83;;;17.05;;
18239;SDS011;9244;50.828;4.718;2023-10-13T01:29:06;23.05;;;17.65;;
18239;SDS011;9244;50.828;4.718;2023-10-13T01:31:41;23.75;;;18.42;;
18239;SDS011;9244;50.828;4.718;2023-10-13T01:34:14;20.58;;;17.13;;
18239;SDS011;9244;50.828;4.718;2023-10-13T01:36:50;18.75;;;15.98;;
18239;SDS011;9244;50.828;4.718;2023-10-13T01:39:20;22.50;;;17.55;;
18239;SDS011;9244;50.828;4.718;2023-10-13T01:41:51;23.33;;;16.55;;
18239;SDS011;9244;50.828;4.718;2023-10-13T01:44:21;20.83;;;17.05;;
18239;SDS011;9244;50.828;4.718;2023-10-13T01:46:47;22.92;;;16.63;;
18239;SDS011;9244;50.828;4.718;2023-10-13T01:49:13;21.05;;;16.55;;
18239;SDS011;9244;50.828;4.718;2023-10-13T01:51:42;25.23;;;16.70;;
18239;SDS011;9244;50.828;4.718;2023-10-13T01:54:08;21.55;;;17.17;;
18239;SDS011;9244;50.828;4.718;2023-10-13T01:56:38;21.25;;;15.30;;
18239;SDS011;9244;50.828;4.718;2023-10-13T01:59:10;17.52;;;14.07;;
18239;SDS011;9244;50.828;4.718;2023-10-13T02:01:36;20.10;;;15.93;;
18239;SDS011;9244;50.828;4.718;2023-10-13T02:04:03;24.95;;;17.23;;
18239;SDS011;9244;50.828;4.718;2023-10-13T02:06:29;22.02;;;17.13;;
18239;SDS011;9244;50.828;4.718;2023-10-13T02:09:02;24.48;;;17.40;;
18239;SDS011;9244;50.828;4.718;2023-10-13T02:11:41;18.75;;;15.80;;
18239;SDS011;9244;50.828;4.718;2023-10-13T02:14:10;20.73;;;15.40;;
18239;SDS011;9244;50.828;4.718;2023-10-13T02:16:37;17.05;;;15.18;;
18239;SDS011;9244;50.828;4.718;2023-10-13T02:19:04;19.48;;;15.60;;
18239;SDS011;9244;50.828;4.718;2023-10-13T02:21:33;19.50;;;14.45;;
18239;SDS011;9244;50.828;4.718;2023-10-13T02:24:05;18.80;;;15.57;;
18239;SDS011;9244;50.828;4.718;2023-10-13T02:26:37;23.40;;;16.95;;
18239;SDS011;9244;50.828;4.718;2023-10-13T02:29:04;20.33;;;15.30;;
18239;SDS011;9244;50.828;4.718;2023-10-13T02:31:36;18.65;;;14.98;;
18239;SDS011;9244;50.828;4.718;2023-10-13T02:34:03;23.02;;;15.40;;
18239;SDS011;9244;50.828;4.718;2023-10-13T02:36:36;17.83;;;14.82;;
18239;SDS011;9244;50.828;4.718;2023-10-13T02:39:13;20.90;;;14.25;;
18239;SDS011;9244;50.828;4.718;2023-10-13T02:41:51;21.55;;;14.70;;
18239;SDS011;9244;50.828;4.718;2023-10-13T02:44:17;20.98;;;14.93;;
18239;SDS011;9244;50.828;4.718;2023-10-13T02:46:54;19.95;;;13.52;;
18239;SDS011;9244;50.828;4.718;2023-10-13T02:49:21;23.25;;;13.73;;
18239;SDS011;9244;50.828;4.718;2023-10-13T02:51:50;16.52;;;13.88;;
18239;SDS011;9244;50.828;4.718;2023-10-13T02:54:18;17.83;;;13.20;;
18239;SDS011;9244;50.828;4.718;2023-10-13T02:56:44;16.77;;;13.50;;
18239;SDS011;9244;50.828;4.718;2023-10-13T02:59:26;19.75;;;14.60;;
18239;SDS011;9244;50.828;4.718;2023-10-13T03:02:02;21.00;;;13.63;;
18239;SDS011;9244;50.828;4.718;2023-10-13T03:04:42;20.23;;;13.23;;
18239;SDS011;9244;50.828;4.718;2023-10-13T03:07:14;19.85;;;13.18;;
18239;SDS011;9244;50.828;4.718;2023-10-13T03:09:53;16.33;;;12.63;;
18239;SDS011;9244;50.828;4.718;2023-10-13T03:12:25;20.05;;;13.52;;
18239;SDS011;9244;50.828;4.718;2023-10-13T03:14:51;17.38;;;12.02;;
18239;SDS011;9244;50.828;4.718;2023-10-13T03:17:22;16.67;;;13.65;;
18239;SDS011;9244;50.828;4.718;2023-10-13T03:19:58;19.50;;;12.63;;
18239;SDS011;9244;50.828;4.718;2023-10-13T03:22:25;13.55;;;11.15;;
18239;SDS011;9244;50.828;4.718;2023-10-13T03:24:58;18.48;;;11.48;;
18239;SDS011;9244;50.828;4.718;2023-10-13T03:27:32;18.33;;;12.63;;
18239;SDS011;9244;50.828;4.718;2023-10-13T03:30:29;19.40;;;13.02;;
18239;SDS011;9244;50.828;4.718;2023-10-13T03:33:07;17.30;;;11.23;;
18239;SDS011;9244;50.828;4.718;2023-10-13T03:35:37;13.98;;;10.20;;
18239;SDS011;9244;50.828;4.718;2023-10-13T03:38:07;18.08;;;11.27;;
18239;SDS011;9244;50.828;4.718;2023-10-13T03:40:42;16.95;;;11.07;;
18239;SDS011;9244;50.828;4.718;2023-10-13T03:43:14;14.35;;;10.40;;
18239;SDS011;9244;50.828;4.718;2023-10-13T03:45:47;16.67;;;9.90;;
18239;SDS011;9244;50.828;4.718;2023-10-13T03:48:17;12.43;;;10.43;;
18239;SDS011;9244;50.828;4.718;2023-10-13T03:50:50;16.38;;;10.65;;
18239;SDS011;9244;50.828;4.718;2023-10-13T03:53:29;16.27;;;10.27;;
18239;SDS011;9244;50.828;4.718;2023-10-13T03:56:04;14.18;;;10.23;;
18239;SDS011;9244;50.828;4.718;2023-10-13T03:58:36;13.30;;;9.07;;
18239;SDS011;9244;50.828;4.718;2023-10-13T04:01:11;14.68;;;9.48;;
18239;SDS011;9244;50.828;4.718;2023-10-13T04:03:40;14.27;;;9.70;;
18239;SDS011;9244;50.828;4.718;2023-10-13T04:06:22;13.00;;;9.50;;
18239;SDS011;9244;50.828;4.718;2023-10-13T04:09:09;13.93;;;8.70;;
18239;SDS011;9244;50.828;4.718;2023-10-13T04:11:56;12.27;;;8.32;;
18239;SDS011;9244;50.828;4.718;2023-10-13T04:14:32;10.23;;;8.18;;
18239;SDS011;9244;50.828;4.718;2023-10-13T04:17:21;11.43;;;6.75;;
18239;SDS011;9244;50.828;4.718;2023-10-13T04:19:48;11.63;;;7.85;;
18239;SDS011;9244;50.828;4.718;2023-10-13T04:22:44;15.25;;;8.10;;
18239;SDS011;9244;50.828;4.718;2023-10-13T04:28:09;14.80;;;7.65;;
18239;SDS011;9244;50.828;4.718;2023-10-13T04:30:39;11.20;;;6.80;;
18239;SDS011;9244;50.828;4.718;2023-10-13T04:33:20;12.27;;;7.88;;
18239;SDS011;9244;50.828;4.718;2023-10-13T04:36:24;10.43;;;7.53;;
18239;SDS011;9244;50.828;4.718;2023-10-13T04:38:56;13.55;;;7.75;;
18239;SDS011;9244;50.828;4.718;2023-10-13T04:41:30;11.77;;;6.95;;
18239;SDS011;9244;50.828;4.718;2023-10-13T04:44:10;10.20;;;7.30;;
18239;SDS011;9244;50.828;4.718;2023-10-13T04:46:57;13.85;;;7.88;;
18239;SDS011;9244;50.828;4.718;2023-10-13T04:49:24;11.48;;;7.38;;
18239;SDS011;9244;50.828;4.718;2023-10-13T04:52:01;11.20;;;7.97;;
18239;SDS011;9244;50.828;4.718;2023-10-13T04:54:48;13.57;;;7.50;;
18239;SDS011;9244;50.828;4.718;2023-10-13T04:57:14;12.35;;;7.82;;
18239;SDS011;9244;50.828;4.718;2023-10-13T05:00:02;16.52;;;8.73;;
18239;SDS011;9244;50.828;4.718;2023-10-13T05:02:39;12.10;;;7.40;;
18239;SDS011;9244;50.828;4.718;2023-10-13T05:05:07;12.23;;;8.63;;
18239;SDS011;9244;50.828;4.718;2023-10-13T05:07:43;16.85;;;8.80;;
18239;SDS011;9244;50.828;4.718;2023-10-13T05:10:29;12.77;;;7.72;;
18239;SDS011;9244;50.828;4.718;2023-10-13T05:13:13;13.82;;;8.27;;
18239;SDS011;9244;50.828;4.718;2023-10-13T05:15:57;12.82;;;7.90;;
18239;SDS011;9244;50.828;4.718;2023-10-13T05:18:41;12.20;;;8.27;;
18239;SDS011;9244;50.828;4.718;2023-10-13T05:21:26;13.07;;;8.02;;
18239;SDS011;9244;50.828;4.718;2023-10-13T05:24:10;18.25;;;8.05;;
18239;SDS011;9244;50.828;4.718;2023-10-13T05:26:54;14.55;;;6.57;;
18239;SDS011;9244;50.828;4.718;2023-10-13T05:29:39;15.93;;;8.20;;
18239;SDS011;9244;50.828;4.718;2023-10-13T05:32:27;15.75;;;8.40;;
18239;SDS011;9244;50.828;4.718;2023-10-13T05:35:12;19.02;;;7.85;;
18239;SDS011;9244;50.828;4.718;2023-10-13T05:38:10;12.32;;;7.80;;
18239;SDS011;9244;50.828;4.718;2023-10-13T05:40:59;12.23;;;7.30;;
18239;SDS011;9244;50.828;4.718;2023-10-13T05:43:47;13.75;;;6.72;;
18239;SDS011;9244;50.828;4.718;2023-10-13T05:46:32;14.50;;;8.05;;
18239;SDS011;9244;50.828;4.718;2023-10-13T05:49:05;10.13;;;7.47;;
18239;SDS011;9244;50.828;4.718;2023-10-13T05:51:41;13.05;;;7.78;;
18239;SDS011;9244;50.828;4.718;2023-10-13T05:54:08;15.02;;;8.00;;
18239;SDS011;9244;50.828;4.718;2023-10-13T05:56:40;13.70;;;7.28;;
18239;SDS011;9244;50.828;4.718;2023-10-13T05:59:29;12.75;;;7.30;;
18239;SDS011;9244;50.828;4.718;2023-10-13T06:02:15;14.18;;;8.07;;
18239;SDS011;9244;50.828;4.718;2023-10-13T06:05:01;9.20;;;6.50;;
18239;SDS011;9244;50.828;4.718;2023-10-13T06:07:46;13.65;;;7.65;;
18239;SDS011;9244;50.828;4.718;2023-10-13T06:10:30;17.95;;;7.88;;
18239;SDS011;9244;50.828;4.718;2023-10-13T06:13:14;19.13;;;8.20;;
18239;SDS011;9244;50.828;4.718;2023-10-13T06:15:58;13.10;;;7.15;;
18239;SDS011;9244;50.828;4.718;2023-10-13T06:18:42;14.27;;;7.30;;
18239;SDS011;9244;50.828;4.718;2023-10-13T06:21:26;15.48;;;7.03;;
18239;SDS011;9244;50.828;4.718;2023-10-13T06:24:10;12.93;;;6.10;;
18239;SDS011;9244;50.828;4.718;2023-10-13T06:26:54;12.73;;;7.35;;
18239;SDS011;9244;50.828;4.718;2023-10-13T06:29:38;14.60;;;6.68;;
18239;SDS011;9244;50.828;4.718;2023-10-13T06:32:05;11.90;;;6.80;;
18239;SDS011;9244;50.828;4.718;2023-10-13T06:34:41;13.90;;;7.40;;
18239;SDS011;9244;50.828;4.718;2023-10-13T06:37:12;14.35;;;6.65;;
18239;SDS011;9244;50.828;4.718;2023-10-13T06:39:58;13.65;;;6.45;;
18239;SDS011;9244;50.828;4.718;2023-10-13T06:42:31;15.65;;;7.75;;
18239;SDS011;9244;50.828;4.718;2023-10-13T06:44:59;10.93;;;6.05;;
18239;SDS011;9244;50.828;4.718;2023-10-13T06:47:28;9.77;;;7.05;;
18239;SDS011;9244;50.828;4.718;2023-10-13T06:49:54;12.40;;;6.20;;
18239;SDS011;9244;50.828;4.718;2023-10-13T06:52:21;15.02;;;6.93;;
18239;SDS011;9244;50.828;4.718;2023-10-13T06:54:51;11.55;;;6.20;;
18239;SDS011;9244;50.828;4.718;2023-10-13T06:57:20;9.75;;;5.65;;
18239;SDS011;9244;50.828;4.718;2023-10-13T06:59:46;11.65;;;6.30;;
18239;SDS011;9244;50.828;4.718;2023-10-13T07:02:12;10.63;;;5.70;;
18239;SDS011;9244;50.828;4.718;2023-10-13T07:04:47;16.88;;;7.10;;
18239;SDS011;9244;50.828;4.718;2023-10-13T07:07:22;9.88;;;5.55;;
18239;SDS011;9244;50.828;4.718;2023-10-13T07:09:49;11.27;;;6.05;;
18239;SDS011;9244;50.828;4.718;2023-10-13T07:12:20;13.45;;;6.72;;
18239;SDS011;9244;50.828;4.718;2023-10-13T07:14:51;9.70;;;5.95;;
18239;SDS011;9244;50.828;4.718;2023-10-13T07:17:18;11.15;;;5.97;;
18239;SDS011;9244;50.828;4.718;2023-10-13T07:19:49;7.82;;;4.88;;
18239;SDS011;9244;50.828;4.718;2023-10-13T07:22:19;9.63;;;5.38;;
18239;SDS011;9244;50.828;4.718;2023-10-13T07:24:45;10.43;;;5.65;;
18239;SDS011;9244;50.828;4.718;2023-10-13T07:27:18;12.07;;;5.43;;
18239;SDS011;9244;50.828;4.718;2023-10-13T07:29:51;13.65;;;5.53;;
18239;SDS011;9244;50.828;4.718;2023-10-13T07:32:38;10.60;;;4.90;;
18239;SDS011;9244;50.828;4.718;2023-10-13T07:35:11;15.63;;;6.38;;
18239;SDS011;9244;50.828;4.718;2023-10-13T07:37:37;13.07;;;5.50;;
18239;SDS011;9244;50.828;4.718;2023-10-13T07:40:06;7.60;;;4.03;;
18239;SDS011;9244;50.828;4.718;2023-10-13T07:42:54;10.13;;;5.78;;
18239;SDS011;9244;50.828;4.718;2023-10-13T07:45:28;12.90;;;5.85;;
18239;SDS011;9244;50.828;4.718;2023-10-13T07:48:10;7.82;;;4.68;;
18239;SDS011;9244;50.828;4.718;2023-10-13T07:50:46;12.07;;;5.30;;
18239;SDS011;9244;50.828;4.718;2023-10-13T07:53:13;10.63;;;4.75;;
18239;SDS011;9244;50.828;4.718;2023-10-13T07:55:48;10.13;;;5.43;;
18239;SDS011;9244;50.828;4.718;2023-10-13T07:58:28;8.57;;;5.00;;
18239;SDS011;9244;50.828;4.718;2023-10-13T08:00:56;11.80;;;5.63;;
18239;SDS011;9244;50.828;4.718;2023-10-13T08:03:25;9.18;;;5.28;;
18239;SDS011;9244;50.828;4.718;2023-10-13T08:06:00;6.38;;;4.53;;
18239;SDS011;9244;50.828;4.718;2023-10-13T08:08:32;8.95;;;5.20;;
18239;SDS011;9244;50.828;4.718;2023-10-13T08:11:08;12.25;;;5.90;;
18239;SDS011;9244;50.828;4.718;2023-10-13T08:13:54;12.02;;;6.07;;
18239;SDS011;9244;50.828;4.718;2023-10-13T08:16:23;7.10;;;4.53;;
18239;SDS011;9244;50.828;4.718;2023-10-13T08:19:17;10.82;;;5.32;;
18239;SDS011;9244;50.828;4.718;2023-10-13T08:21:57;10.65;;;5.32;;
18239;SDS011;9244;50.828;4.718;2023-10-13T08:24:27;7.32;;;4.97;;
18239;SDS011;9244;50.828;4.718;2023-10-13T08:26:53;10.70;;;5.53;;
18239;SDS011;9244;50.828;4.718;2023-10-13T08:29:37;10.27;;;5.30;;
18239;SDS011;9244;50.828;4.718;2023-10-13T08:32:34;8.80;;;4.93;;
18239;SDS011;9244;50.828;4.718;2023-10-13T08:35:10;9.23;;;5.50;;
18239;SDS011;9244;50.828;4.718;2023-10-13T08:37:47;11.45;;;5.75;;
18239;SDS011;9244;50.828;4.718;2023-10-13T08:40:16;12.50;;;4.95;;
18239;SDS011;9244;50.828;4.718;2023-10-13T08:42:46;7.63;;;5.05;;
18239;SDS011;9244;50.828;4.718;2023-10-13T08:45:16;7.85;;;5.97;;
18239;SDS011;9244;50.828;4.718;2023-10-13T08:47:50;8.75;;;5.60;;
18239;SDS011;9244;50.828;4.718;2023-10-13T08:50:34;9.48;;;5.88;;
18239;SDS011;9244;50.828;4.718;2023-10-13T08:53:30;11.43;;;5.70;;
18239;SDS011;9244;50.828;4.718;2023-10-13T08:56:01;7.57;;;5.28;;
18239;SDS011;9244;50.828;4.718;2023-10-13T08:58:40;6.97;;;4.97;;
18239;SDS011;9244;50.828;4.718;2023-10-13T09:01:26;8.30;;;6.00;;
18239;SDS011;9244;50.828;4.718;2023-10-13T09:04:40;9.10;;;5.38;;
18239;SDS011;9244;50.828;4.718;2023-10-13T09:07:09;8.80;;;5.63;;
18239;SDS011;9244;50.828;4.718;2023-10-13T09:12:15;13.82;;;5.63;;
18239;SDS011;9244;50.828;4.718;2023-10-13T09:14:52;12.57;;;6.35;;
18239;SDS011;9244;50.828;4.718;2023-10-13T09:17:22;10.73;;;5.50;;
18239;SDS011;9244;50.828;4.718;2023-10-13T09:19:58;7.93;;;5.15;;
18239;SDS011;9244;50.828;4.718;2023-10-13T09:22:36;10.40;;;4.90;;
18239;SDS011;9244;50.828;4.718;2023-10-13T09:25:02;11.18;;;6.75;;
18239;SDS011;9244;50.828;4.718;2023-10-13T09:27:38;8.45;;;6.03;;
18239;SDS011;9244;50.828;4.718;2023-10-13T09:30:04;7.88;;;5.13;;
18239;SDS011;9244;50.828;4.718;2023-10-13T09:32:46;7.45;;;5.72;;
18239;SDS011;9244;50.828;4.718;2023-10-13T09:35:26;9.13;;;5.05;;
18239;SDS011;9244;50.828;4.718;2023-10-13T09:37:53;9.02;;;6.43;;
18239;SDS011;9244;50.828;4.718;2023-10-13T09:40:22;11.13;;;6.47;;
18239;SDS011;9244;50.828;4.718;2023-10-13T09:42:57;9.48;;;6.22;;
18239;SDS011;9244;50.828;4.718;2023-10-13T09:45:28;12.35;;;7.60;;
18239;SDS011;9244;50.828;4.718;2023-10-13T09:48:01;14.07;;;6.93;;
18239;SDS011;9244;50.828;4.718;2023-10-13T09:50:32;11.40;;;5.60;;
18239;SDS011;9244;50.828;4.718;2023-10-13T09:53:03;9.05;;;5.63;;
18239;SDS011;9244;50.828;4.718;2023-10-13T09:55:38;6.68;;;5.57;;
18239;SDS011;9244;50.828;4.718;2023-10-13T09:58:10;7.93;;;5.50;;
18239;SDS011;9244;50.828;4.718;2023-10-13T10:00:43;11.85;;;6.55;;
18239;SDS011;9244;50.828;4.718;2023-10-13T10:03:15;10.07;;;5.95;;
18239;SDS011;9244;50.828;4.718;2023-10-13T10:05:59;8.30;;;5.78;;
18239;SDS011;9244;50.828;4.718;2023-10-13T10:08:30;9.52;;;6.50;;
18239;SDS011;9244;50.828;4.718;2023-10-13T10:13:52;10.90;;;5.97;;
18239;SDS011;9244;50.828;4.718;2023-10-13T10:19:24;9.88;;;6.40;;
18239;SDS011;9244;50.828;4.718;2023-10-13T10:22:00;9.07;;;5.35;;
18239;SDS011;9244;50.828;4.718;2023-10-13T10:24:41;7.88;;;5.20;;
18239;SDS011;9244;50.828;4.718;2023-10-13T10:27:08;9.55;;;6.30;;
18239;SDS011;9244;50.828;4.718;2023-10-13T10:29:40;9.20;;;5.93;;
18239;SDS011;9244;50.828;4.718;2023-10-13T10:32:18;13.80;;;5.28;;
18239;SDS011;9244;50.828;4.718;2023-10-13T10:34:44;8.27;;;5.13;;
18239;SDS011;9244;50.828;4.718;2023-10-13T10:37:09;12.52;;;5.95;;
18239;SDS011;9244;50.828;4.718;2023-10-13T10:39:36;9.82;;;5.28;;
18239;SDS011;9244;50.828;4.718;2023-10-13T10:42:12;9.77;;;4.47;;
18239;SDS011;9244;50.828;4.718;2023-10-13T10:44:42;10.57;;;5.50;;
18239;SDS011;9244;50.828;4.718;2023-10-13T10:47:13;7.38;;;5.22;;
18239;SDS011;9244;50.828;4.718;2023-10-13T10:50:02;15.52;;;6.03;;
18239;SDS011;9244;50.828;4.718;2023-10-13T10:52:54;13.02;;;5.90;;
18239;SDS011;9244;50.828;4.718;2023-10-13T10:55:22;10.55;;;5.03;;
18239;SDS011;9244;50.828;4.718;2023-10-13T10:57:59;15.15;;;6.38;;
18239;SDS011;9244;50.828;4.718;2023-10-13T11:00:31;12.05;;;5.75;;
18239;SDS011;9244;50.828;4.718;2023-10-13T11:03:11;9.35;;;5.10;;
18239;SDS011;9244;50.828;4.718;2023-10-13T11:05:44;12.07;;;5.35;;
18239;SDS011;9244;50.828;4.718;2023-10-13T11:08:20;11.85;;;5.22;;
18239;SDS011;9244;50.828;4.718;2023-10-13T11:10:58;13.70;;;5.97;;
18239;SDS011;9244;50.828;4.718;2023-10-13T11:13:40;15.50;;;7.07;;
18239;SDS011;9244;50.828;4.718;2023-10-13T11:16:20;17.27;;;5.60;;
18239;SDS011;9244;50.828;4.718;2023-10-13T11:18:59;14.57;;;5.45;;
18239;SDS011;9244;50.828;4.718;2023-10-13T11:21:28;15.20;;;6.13;;
18239;SDS011;9244;50.828;4.718;2023-10-13T11:23:58;17.40;;;6.30;;
18239;SDS011;9244;50.828;4.718;2023-10-13T11:26:36;12.82;;;5.22;;
18239;SDS011;9244;50.828;4.718;2023-10-13T11:29:31;10.82;;;5.38;;
18239;SDS011;9244;50.828;4.718;2023-10-13T11:32:00;13.88;;;6.32;;
18239;SDS011;9244;50.828;4.718;2023-10-13T11:34:28;12.15;;;5.05;;
18239;SDS011;9244;50.828;4.718;2023-10-13T11:37:04;14.15;;;5.60;;
18239;SDS011;9244;50.828;4.718;2023-10-13T11:39:50;13.00;;;5.22;;
18239;SDS011;9244;50.828;4.718;2023-10-13T11:42:17;11.07;;;5.43;;
18239;SDS011;9244;50.828;4.718;2023-10-13T11:44:42;12.35;;;5.72;;
18239;SDS011;9244;50.828;4.718;2023-10-13T11:47:09;7.38;;;4.90;;
18239;SDS011;9244;50.828;4.718;2023-10-13T11:49:53;11.23;;;5.97;;
18239;SDS011;9244;50.828;4.718;2023-10-13T11:52:23;11.68;;;5.50;;
18239;SDS011;9244;50.828;4.718;2023-10-13T11:54:51;13.00;;;5.93;;
18239;SDS011;9244;50.828;4.718;2023-10-13T11:57:17;10.10;;;5.22;;
18239;SDS011;9244;50.828;4.718;2023-10-13T11:59:44;8.68;;;5.15;;
18239;SDS011;9244;50.828;4.718;2023-10-13T12:02:18;11.80;;;5.50;;
18239;SDS011;9244;50.828;4.718;2023-10-13T12:04:50;12.57;;;5.80;;
18239;SDS011;9244;50.828;4.718;2023-10-13T12:07:19;10.73;;;5.57;;
18239;SDS011;9244;50.828;4.718;2023-10-13T12:09:52;11.38;;;5.07;;
18239;SDS011;9244;50.828;4.718;2023-10-13T12:12:21;11.95;;;5.10;;
18239;SDS011;9244;50.828;4.718;2023-10-13T12:14:48;10.00;;;4.32;;
18239;SDS011;9244;50.828;4.718;2023-10-13T12:17:23;10.93;;;5.63;;
18239;SDS011;9244;50.828;4.718;2023-10-13T12:19:56;12.30;;;5.10;;
18239;SDS011;9244;50.828;4.718;2023-10-13T12:22:23;9.40;;;4.82;;
18239;SDS011;9244;50.828;4.718;2023-10-13T12:25:07;14.52;;;5.68;;
18239;SDS011;9244;50.828;4.718;2023-10-13T12:27:52;8.20;;;5.20;;
18239;SDS011;9244;50.828;4.718;2023-10-13T12:30:38;10.45;;;5.50;;
18239;SDS011;9244;50.828;4.718;2023-10-13T12:33:20;9.68;;;5.35;;
18239;SDS011;9244;50.828;4.718;2023-10-13T12:35:58;12.18;;;4.90;;
18239;SDS011;9244;50.828;4.718;2023-10-13T12:38:31;8.88;;;5.35;;
18239;SDS011;9244;50.828;4.718;2023-10-13T12:41:16;8.75;;;4.50;;
18239;SDS011;9244;50.828;4.718;2023-10-13T12:44:01;9.38;;;5.00;;
18239;SDS011;9244;50.828;4.718;2023-10-13T12:46:46;11.50;;;5.45;;
18239;SDS011;9244;50.828;4.718;2023-10-13T12:49:32;8.90;;;5.03;;
18239;SDS011;9244;50.828;4.718;2023-10-13T12:52:14;9.27;;;4.97;;
18239;SDS011;9244;50.828;4.718;2023-10-13T12:54:56;10.00;;;5.53;;
18239;SDS011;9244;50.828;4.718;2023-10-13T12:57:22;8.55;;;5.32;;
18239;SDS011;9244;50.828;4.718;2023-10-13T12:59:49;12.48;;;4.95;;
18239;SDS011;9244;50.828;4.718;2023-10-13T13:02:18;10.65;;;5.45;;
18239;SDS011;9244;50.828;4.718;2023-10-13T13:04:45;6.20;;;3.58;;
18239;SDS011;9244;50.828;4.718;2023-10-13T13:07:13;10.50;;;5.45;;
18239;SDS011;9244;50.828;4.718;2023-10-13T13:09:42;10.13;;;5.03;;
18239;SDS011;9244;50.828;4.718;2023-10-13T13:12:08;11.23;;;5.63;;
18239;SDS011;9244;50.828;4.718;2023-10-13T13:14:39;8.27;;;5.00;;
18239;SDS011;9244;50.828;4.718;2023-10-13T13:17:10;8.73;;;4.43;;
18239;SDS011;9244;50.828;4.718;2023-10-13T13:19:37;8.93;;;5.50;;
18239;SDS011;9244;50.828;4.718;2023-10-13T13:22:06;11.95;;;5.25;;
18239;SDS011;9244;50.828;4.718;2023-10-13T13:24:39;7.00;;;4.35;;
18239;SDS011;9244;50.828;4.718;2023-10-13T13:27:11;6.43;;;4.55;;
18239;SDS011;9244;50.828;4.718;2023-10-13T13:29:41;12.13;;;4.45;;
18239;SDS011;9244;50.828;4.718;2023-10-13T13:32:08;9.77;;;4.70;;
18239;SDS011;9244;50.828;4.718;2023-10-13T13:34:51;10.45;;;5.03;;
18239;SDS011;9244;50.828;4.718;2023-10-13T13:37:28;10.57;;;4.68;;
18239;SDS011;9244;50.828;4.718;2023-10-13T13:39:54;6.93;;;4.30;;
18239;SDS011;9244;50.828;4.718;2023-10-13T13:42:20;9.40;;;4.40;;
18239;SDS011;9244;50.828;4.718;2023-10-13T13:44:45;7.80;;;4.55;;
18239;SDS011;9244;50.828;4.718;2023-10-13T13:47:14;7.40;;;4.63;;
18239;SDS011;9244;50.828;4.718;2023-10-13T13:49:42;6.95;;;4.70;;
18239;SDS011;9244;50.828;4.718;2023-10-13T13:52:18;7.93;;;4.18;;
18239;SDS011;9244;50.828;4.718;2023-10-13T13:54:53;9.93;;;5.10;;
18239;SDS011;9244;50.828;4.718;2023-10-13T13:57:18;7.15;;;4.03;;
18239;SDS011;9244;50.828;4.718;2023-10-13T13:59:44;6.90;;;4.80;;
18239;SDS011;9244;50.828;4.718;2023-10-13T14:02:10;8.65;;;5.00;;
18239;SDS011;9244;50.828;4.718;2023-10-13T14:04:45;7.85;;;4.72;;
18239;SDS011;9244;50.828;4.718;2023-10-13T14:07:15;6.03;;;3.92;;
18239;SDS011;9244;50.828;4.718;2023-10-13T14:09:44;22.35;;;4.55;;
18239;SDS011;9244;50.828;4.718;2023-10-13T14:12:10;6.47;;;4.25;;
18239;SDS011;9244;50.828;4.718;2023-10-13T14:14:44;6.15;;;4.15;;
18239;SDS011;9244;50.828;4.718;2023-10-13T14:17:20;8.45;;;4.68;;
18239;SDS011;9244;50.828;4.718;2023-10-13T14:19:54;6.53;;;4.28;;
18239;SDS011;9244;50.828;4.718;2023-10-13T14:22:23;9.10;;;4.50;;
18239;SDS011;9244;50.828;4.718;2023-10-13T14:24:50;8.88;;;4.30;;
18239;SDS011;9244;50.828;4.718;2023-10-13T14:27:33;4.75;;;3.22;;
18239;SDS011;9244;50.828;4.718;2023-10-13T14:30:00;7.00;;;4.68;;
18239;SDS011;9244;50.828;4.718;2023-10-13T14:32:27;7.53;;;3.55;;
18239;SDS011;9244;50.828;4.718;2023-10-13T14:34:53;8.38;;;4.53;;
18239;SDS011;9244;50.828;4.718;2023-10-13T14:37:19;9.30;;;4.93;;
18239;SDS011;9244;50.828;4.718;2023-10-13T14:39:54;9.30;;;4.55;;
18239;SDS011;9244;50.828;4.718;2023-10-13T14:42:28;13.70;;;5.07;;
18239;SDS011;9244;50.828;4.718;2023-10-13T14:44:53;10.20;;;4.13;;
18239;SDS011;9244;50.828;4.718;2023-10-13T14:47:23;8.63;;;4.25;;
18239;SDS011;9244;50.828;4.718;2023-10-13T14:49:52;8.15;;;4.28;;
18239;SDS011;9244;50.828;4.718;2023-10-13T14:52:25;8.88;;;4.65;;
18239;SDS011;9244;50.828;4.718;2023-10-13T14:54:51;8.60;;;4.30;;
18239;SDS011;9244;50.828;4.718;2023-10-13T14:57:22;8.27;;;4.85;;
18239;SDS011;9244;50.828;4.718;2023-10-13T14:59:54;12.15;;;5.07;;
18239;SDS011;9244;50.828;4.718;2023-10-13T15:02:21;11.43;;;4.85;;
18239;SDS011;9244;50.828;4.718;2023-10-13T15:04:47;11.27;;;4.95;;
18239;SDS011;9244;50.828;4.718;2023-10-13T15:07:13;10.65;;;5.07;;
18239;SDS011;9244;50.828;4.718;2023-10-13T15:09:44;7.30;;;4.57;;
18239;SDS011;9244;50.828;4.718;2023-10-13T15:12:10;7.43;;;5.43;;
18239;SDS011;9244;50.828;4.718;2023-10-13T15:14:39;9.10;;;5.00;;
18239;SDS011;9244;50.828;4.718;2023-10-13T15:17:07;8.80;;;4.57;;
18239;SDS011;9244;50.828;4.718;2023-10-13T15:19:36;6.75;;;5.28;;
18239;SDS011;9244;50.828;4.718;2023-10-13T15:22:04;8.52;;;5.05;;
18239;SDS011;9244;50.828;4.718;2023-10-13T15:24:37;10.45;;;5.47;;
18239;SDS011;9244;50.828;4.718;2023-10-13T15:27:25;8.40;;;5.10;;
18239;SDS011;9244;50.828;4.718;2023-10-13T15:29:53;11.52;;;5.22;;
18239;SDS011;9244;50.828;4.718;2023-10-13T15:32:19;9.77;;;5.93;;
18239;SDS011;9244;50.828;4.718;2023-10-13T15:35:04;8.05;;;4.82;;
18239;SDS011;9244;50.828;4.718;2023-10-13T15:37:30;9.13;;;5.50;;
18239;SDS011;9244;50.828;4.718;2023-10-13T15:39:56;7.78;;;4.82;;
18239;SDS011;9244;50.828;4.718;2023-10-13T15:42:22;9.63;;;5.70;;